createdAt,value
2022-08-24T00:00:41.328Z,101101.38
2022-08-24T00:03:45.715Z,101101.59
2022-08-24T00:06:49.887Z,101099.38
2022-08-24T00:09:52.493Z,101100.69
2022-08-24T00:12:55.003Z,101097.00
2022-08-24T00:15:57.907Z,101088.34
2022-08-24T00:19:02.302Z,101108.00
2022-08-24T00:22:06.707Z,101107.16
2022-08-24T00:25:11.333Z,101098.72
2022-08-24T00:28:14.126Z,101092.53
2022-08-24T00:31:17.790Z,101098.53
2022-08-24T00:34:20.507Z,101113.97
2022-08-24T00:37:25.417Z,101126.34
2022-08-24T00:40:33.982Z,101128.50
2022-08-24T00:43:36.695Z,101118.53
2022-08-24T00:46:49.017Z,101129.56
2022-08-24T00:49:57.655Z,101147.97
2022-08-24T00:53:07.193Z,101138.19
2022-08-24T00:56:15.425Z,101126.78
2022-08-24T00:59:22.246Z,101130.75
2022-08-24T01:02:30.229Z,101139.19
2022-08-24T01:05:33.781Z,101096.47
2022-08-24T01:08:37.635Z,101154.16
2022-08-24T01:11:41.201Z,101168.91
2022-08-24T01:14:44.466Z,101155.72
2022-08-24T01:18:08.473Z,101153.91
2022-08-24T01:21:16.147Z,101174.34
2022-08-24T01:24:20.063Z,101184.50
2022-08-24T01:27:27.862Z,101186.38
2022-08-24T01:30:36.380Z,101202.63
2022-08-24T01:33:39.374Z,101198.53
2022-08-24T01:36:45.716Z,101193.91
2022-08-24T01:39:51.173Z,101198.13
2022-08-24T01:42:54.178Z,101213.06
2022-08-24T01:45:56.872Z,101199.59
2022-08-24T01:49:00.311Z,101201.69
2022-08-24T01:52:03.542Z,101206.31
2022-08-24T01:55:08.991Z,101223.75
2022-08-24T01:58:11.519Z,101208.03
2022-08-24T02:01:14.934Z,101202.59
2022-08-24T02:04:17.615Z,101226.22
2022-08-24T02:07:20.550Z,101199.66
2022-08-24T02:10:24.555Z,101216.97
2022-08-24T02:13:28.711Z,101157.78
2022-08-24T02:16:31.283Z,101148.56
2022-08-24T02:19:34.163Z,101153.41
2022-08-24T02:22:36.657Z,101147.75
2022-08-24T02:25:40.481Z,101150.78
2022-08-24T02:28:43.314Z,101150.06
2022-08-24T02:31:45.967Z,101152.19
2022-08-24T02:34:48.473Z,101147.81
2022-08-24T02:37:52.207Z,101154.00
2022-08-24T02:40:57.866Z,101148.13
2022-08-24T02:44:00.942Z,101205.09
2022-08-24T02:47:03.427Z,101206.75
2022-08-24T02:50:07.824Z,101207.63
2022-08-24T02:53:11.165Z,101214.47
2022-08-24T02:56:15.129Z,101218.09
2022-08-24T02:59:18.370Z,101201.00
2022-08-24T03:02:20.926Z,101220.22
2022-08-24T03:05:25.009Z,101207.53
2022-08-24T03:08:27.544Z,101209.97
2022-08-24T03:11:33.128Z,101226.13
2022-08-24T03:14:36.018Z,101234.97
2022-08-24T03:17:39.950Z,101177.19
2022-08-24T03:20:43.875Z,101191.50
2022-08-24T03:23:46.379Z,101183.69
2022-08-24T03:26:50.241Z,101172.47
2022-08-24T03:29:52.978Z,101195.03
2022-08-24T03:32:57.021Z,101191.50
2022-08-24T03:35:59.669Z,101215.19
2022-08-24T03:39:02.165Z,101217.72
2022-08-24T03:42:06.843Z,101226.22
2022-08-24T03:45:11.028Z,101233.78
2022-08-24T03:48:15.623Z,101224.16
2022-08-24T03:51:20.074Z,101243.81
2022-08-24T03:54:22.603Z,101235.56
2022-08-24T03:57:26.443Z,101239.97
2022-08-24T04:00:28.958Z,101232.19
2022-08-24T04:03:32.522Z,101250.13
2022-08-24T04:06:35.960Z,101257.13
2022-08-24T04:09:38.537Z,101239.69
2022-08-24T04:12:42.334Z,101276.66
2022-08-24T04:15:46.351Z,101285.31
2022-08-24T04:18:49.301Z,101288.34
2022-08-24T04:21:51.784Z,101288.97
2022-08-24T04:24:54.803Z,101302.13
2022-08-24T04:27:58.644Z,101297.25
2022-08-24T04:31:01.201Z,101294.59
2022-08-24T04:34:04.086Z,101309.84
2022-08-24T04:37:11.258Z,101317.53
2022-08-24T04:40:14.020Z,101315.75
2022-08-24T04:43:20.092Z,101272.25
2022-08-24T04:46:22.904Z,101327.00
2022-08-24T04:49:25.415Z,101278.44
2022-08-24T04:52:29.120Z,101335.09
2022-08-24T04:55:31.717Z,101338.88
2022-08-24T04:58:35.544Z,101350.31
2022-08-24T05:01:38.026Z,101356.38
2022-08-24T05:04:40.553Z,101351.38
2022-08-24T05:07:44.967Z,101331.31
2022-08-24T05:10:50.542Z,101353.81
2022-08-24T05:13:55.636Z,101367.78
2022-08-24T05:16:58.230Z,101363.81
2022-08-24T05:20:00.921Z,101389.84
2022-08-24T05:23:04.643Z,101386.69
2022-08-24T05:26:10.223Z,101395.41
2022-08-24T05:29:14.461Z,101395.91
2022-08-24T05:32:19.129Z,101400.66
2022-08-24T05:35:21.987Z,101355.84
2022-08-24T05:38:24.475Z,101352.31
2022-08-24T05:41:27.711Z,101351.09
2022-08-24T05:44:31.897Z,101351.63
2022-08-24T05:47:35.412Z,101350.00
2022-08-24T05:50:38.072Z,101350.13
2022-08-24T05:53:40.978Z,101341.78
2022-08-24T05:56:44.718Z,101336.66
2022-08-24T05:59:48.927Z,101339.53
2022-08-24T06:02:52.902Z,101331.97
2022-08-24T06:05:55.899Z,101331.78
2022-08-24T06:09:01.550Z,101346.78
2022-08-24T06:12:04.619Z,101337.84
2022-08-24T06:15:09.666Z,101333.06
2022-08-24T06:18:12.293Z,101336.25
2022-08-24T06:21:17.676Z,101336.06
2022-08-24T06:24:42.117Z,101343.13
2022-08-24T06:27:45.205Z,101340.91
2022-08-24T06:30:48.999Z,101332.31
2022-08-24T06:33:52.814Z,101345.50
2022-08-24T06:36:55.281Z,101341.03
2022-08-24T06:39:59.841Z,101346.00
2022-08-24T06:43:04.687Z,101349.44
2022-08-24T06:46:08.702Z,101351.53
2022-08-24T06:49:11.299Z,101351.13
2022-08-24T06:52:13.999Z,101348.97
2022-08-24T06:55:16.715Z,101356.25
2022-08-24T06:58:20.140Z,101351.75
2022-08-24T07:01:27.470Z,101355.13
2022-08-24T07:04:30.210Z,101327.53
2022-08-24T07:07:32.689Z,101358.69
2022-08-24T07:10:35.674Z,101357.13
2022-08-24T07:13:38.736Z,101372.88
2022-08-24T07:16:42.842Z,101364.84
2022-08-24T07:19:46.271Z,101366.69
2022-08-24T07:22:48.848Z,101365.84
2022-08-24T07:25:55.495Z,101367.78
2022-08-24T07:29:05.128Z,101362.47
2022-08-24T07:32:10.165Z,101366.16
2022-08-24T07:35:12.737Z,101367.13
2022-08-24T07:38:15.281Z,101368.25
2022-08-24T07:41:40.459Z,101373.44
2022-08-24T07:44:40.527Z,101377.03
2022-08-24T07:47:54.587Z,101379.06
2022-08-24T07:50:59.568Z,101377.13
2022-08-24T07:54:03.590Z,101382.50
2022-08-24T07:57:09.906Z,101142.31
2022-08-24T08:00:15.810Z,101155.50
2022-08-24T08:03:19.778Z,101152.44
2022-08-24T08:06:22.254Z,101153.66
2022-08-24T08:09:24.801Z,101156.63
2022-08-24T08:12:27.454Z,101167.47
2022-08-24T08:15:29.973Z,101163.78
2022-08-24T08:18:34.838Z,101160.09
2022-08-24T08:21:59.982Z,101172.66
2022-08-24T08:25:02.487Z,101159.94
2022-08-24T08:28:18.433Z,101163.47
2022-08-24T08:31:28.137Z,101174.16
2022-08-24T08:34:32.233Z,101179.38
2022-08-24T08:40:56.374Z,101179.47
2022-08-24T08:44:04.370Z,101176.47
2022-08-24T08:47:18.116Z,101183.03
2022-08-24T08:50:27.243Z,101180.06
2022-08-24T08:54:02.857Z,101187.75
2022-08-24T08:57:19.074Z,101190.91
2022-08-24T09:00:24.558Z,101186.13
2022-08-24T09:03:38.947Z,101184.66
2022-08-24T09:06:52.014Z,101189.19
2022-08-24T09:10:10.147Z,101196.69
2022-08-24T09:13:26.905Z,101186.84
2022-08-24T09:16:48.226Z,101190.81
2022-08-24T09:20:08.850Z,101192.25
2022-08-24T09:23:22.648Z,101185.03
2022-08-24T09:26:29.173Z,101189.19
2022-08-24T09:29:48.232Z,101190.03
2022-08-24T09:33:06.243Z,101191.81
2022-08-24T09:36:13.032Z,101185.78
2022-08-24T09:39:37.091Z,101197.88
2022-08-24T09:43:07.775Z,101183.56
2022-08-24T09:46:50.743Z,101193.47
2022-08-24T09:50:11.324Z,101198.16
2022-08-24T09:53:38.145Z,101189.97
2022-08-24T09:57:12.175Z,101187.97
2022-08-24T10:00:22.567Z,101187.63
2022-08-24T10:03:40.007Z,101192.91
2022-08-24T10:06:55.531Z,101189.50
2022-08-24T10:10:16.810Z,101192.34
2022-08-24T10:13:26.151Z,101186.13
2022-08-24T10:16:39.647Z,101190.69
2022-08-24T10:19:57.891Z,101198.06
2022-08-24T10:23:30.445Z,101190.06
2022-08-24T10:26:42.038Z,101194.13
2022-08-24T10:30:11.247Z,101178.19
2022-08-24T10:33:21.225Z,101187.66
2022-08-24T10:36:49.928Z,101177.28
2022-08-24T10:40:14.311Z,101170.38
2022-08-24T10:43:42.983Z,101169.16
2022-08-24T10:46:56.613Z,101176.59
2022-08-24T10:50:31.106Z,101172.41
2022-08-24T10:53:34.685Z,101171.00
2022-08-24T10:56:42.360Z,101168.13
2022-08-24T10:59:53.674Z,101175.94
2022-08-24T11:03:11.471Z,101168.16
2022-08-24T11:06:16.554Z,101170.84
2022-08-24T11:09:20.078Z,101167.28
2022-08-24T11:12:26.386Z,101171.28
2022-08-24T11:15:29.660Z,101164.56
2022-08-24T11:18:49.781Z,101162.88
2022-08-24T11:21:54.546Z,101168.78
2022-08-24T11:25:00.491Z,101165.59
2022-08-24T11:28:06.092Z,101171.03
2022-08-24T11:31:12.480Z,101169.31
2022-08-24T11:34:19.617Z,101173.31
2022-08-24T11:37:27.105Z,101164.81
2022-08-24T11:40:38.523Z,101177.22
2022-08-24T11:43:58.857Z,101181.72
2022-08-24T11:47:07.921Z,101173.53
2022-08-24T11:50:23.470Z,101166.13
2022-08-24T11:57:02.858Z,101165.34
2022-08-24T12:00:10.399Z,101158.91
2022-08-24T12:03:25.916Z,101150.41
2022-08-24T12:06:41.898Z,101156.38
2022-08-24T12:10:00.252Z,101148.03
2022-08-24T12:13:10.999Z,101159.13
2022-08-24T12:16:21.428Z,101156.09
2022-08-24T12:19:29.742Z,101156.84
2022-08-24T12:22:34.047Z,101155.78
2022-08-24T12:25:55.277Z,101153.34
2022-08-24T12:29:02.379Z,101165.25
2022-08-24T12:32:10.315Z,101156.47
2022-08-24T12:35:22.577Z,101158.22
2022-08-24T12:38:32.696Z,101160.09
2022-08-24T12:41:40.894Z,101162.03
2022-08-24T12:44:50.130Z,101164.41
2022-08-24T12:47:58.894Z,101165.13
2022-08-24T12:51:14.565Z,101158.31
2022-08-24T12:54:35.632Z,101161.41
2022-08-24T12:57:54.579Z,101166.44
2022-08-24T13:01:01.577Z,101157.56
2022-08-24T13:04:11.770Z,101153.72
2022-08-24T13:07:30.674Z,101154.94
2022-08-24T13:10:42.279Z,101162.34
2022-08-24T13:13:48.302Z,101144.22
2022-08-24T13:17:09.542Z,101145.63
2022-08-24T13:20:20.600Z,101152.69
2022-08-24T13:23:25.222Z,101147.63
2022-08-24T13:26:29.234Z,101138.56
2022-08-24T13:29:35.477Z,101143.00
2022-08-24T13:32:44.879Z,101144.03
2022-08-24T13:36:03.891Z,101147.56
2022-08-24T13:39:18.308Z,101151.44
2022-08-24T13:42:46.338Z,101139.63
2022-08-24T13:45:57.246Z,101144.69
2022-08-24T13:49:03.864Z,101147.81
2022-08-24T13:52:15.902Z,101146.09
2022-08-24T13:55:36.781Z,101139.72
2022-08-24T13:58:46.129Z,101139.59
2022-08-24T14:02:08.368Z,101151.44
2022-08-24T14:05:24.222Z,101144.72
2022-08-24T14:08:42.875Z,101142.84
2022-08-24T14:12:07.293Z,101141.84
2022-08-24T14:15:27.016Z,101148.94
2022-08-24T14:18:37.908Z,101141.97
2022-08-24T14:21:46.544Z,101154.34
2022-08-24T14:25:06.091Z,101158.63
2022-08-24T14:28:37.161Z,101159.72
2022-08-24T14:31:41.505Z,101153.03
2022-08-24T14:34:53.160Z,101154.94
2022-08-24T14:38:12.472Z,101156.63
2022-08-24T14:41:20.612Z,101146.38
2022-08-24T14:44:52.720Z,101150.84
2022-08-24T14:48:05.484Z,101145.53
2022-08-24T14:51:19.001Z,101136.47
2022-08-24T14:54:32.458Z,101137.78
2022-08-24T14:57:57.617Z,101144.50
2022-08-24T15:01:13.095Z,101134.38
2022-08-24T15:04:40.435Z,101130.66
2022-08-24T15:07:53.793Z,101123.19
2022-08-24T15:10:59.916Z,101125.25
2022-08-24T15:14:05.808Z,101118.63
2022-08-24T15:17:12.095Z,101124.19
2022-08-24T15:20:21.058Z,101120.31
2022-08-24T15:23:34.223Z,101122.16
2022-08-24T15:26:51.039Z,101122.03
2022-08-24T15:29:57.190Z,101126.91
2022-08-24T15:33:06.360Z,101121.19
2022-08-24T15:36:13.157Z,101119.78
2022-08-24T15:39:27.093Z,101116.63
2022-08-24T15:42:33.306Z,101116.81
2022-08-24T15:45:48.355Z,101122.06
2022-08-24T15:48:51.336Z,101121.91
2022-08-24T15:51:58.447Z,101119.50
2022-08-24T15:55:03.645Z,101116.91
2022-08-24T15:58:25.615Z,101113.84
2022-08-24T16:01:45.623Z,101116.03
2022-08-24T16:04:50.169Z,101114.22
2022-08-24T16:08:09.380Z,101116.53
2022-08-24T16:11:27.439Z,101114.53
2022-08-24T16:14:33.768Z,101115.88
2022-08-24T16:17:41.359Z,101114.56
2022-08-24T16:20:46.197Z,101107.59
2022-08-24T16:24:01.312Z,101117.13
2022-08-24T16:27:08.060Z,101117.94
2022-08-24T16:30:24.559Z,101111.38
2022-08-24T16:33:43.073Z,101114.38
2022-08-24T16:36:48.699Z,101116.53
2022-08-24T16:39:54.654Z,101117.72
2022-08-24T16:42:57.586Z,101114.59
2022-08-24T16:46:02.310Z,101119.66
2022-08-24T16:49:04.874Z,101120.00
2022-08-24T16:52:16.118Z,101121.47
2022-08-24T16:55:19.957Z,101118.56
2022-08-24T16:58:30.619Z,101107.34
2022-08-24T17:01:33.182Z,101111.63
2022-08-24T17:04:35.758Z,101117.31
2022-08-24T17:07:38.352Z,101115.19
2022-08-24T17:10:43.859Z,101112.56
2022-08-24T17:13:50.228Z,101122.72
2022-08-24T17:16:52.992Z,101120.28
2022-08-24T17:19:56.555Z,101125.19
2022-08-24T17:22:59.402Z,101118.78
2022-08-24T17:26:09.530Z,101124.22
2022-08-24T17:29:22.338Z,101123.34
2022-08-24T17:32:25.613Z,101126.06
2022-08-24T17:35:28.411Z,101130.78
2022-08-24T17:38:31.486Z,101125.63
2022-08-24T17:41:36.063Z,101130.56
2022-08-24T17:44:39.221Z,101136.03
2022-08-24T17:47:43.519Z,101136.25
2022-08-24T17:50:46.102Z,101136.63
2022-08-24T17:53:48.645Z,101141.34
2022-08-24T17:56:52.899Z,101143.59
2022-08-24T17:59:55.404Z,101137.56
2022-08-24T18:02:57.940Z,101145.28
2022-08-24T18:06:00.520Z,101144.31
2022-08-24T18:09:06.774Z,101154.97
2022-08-24T18:12:10.687Z,101154.38
2022-08-24T18:15:13.330Z,101163.75
2022-08-24T18:18:15.818Z,101166.59
2022-08-24T18:21:20.029Z,101164.13
2022-08-24T18:24:22.518Z,101163.41
2022-08-24T18:27:29.322Z,101169.91
2022-08-24T18:30:32.619Z,101169.34
2022-08-24T18:33:35.492Z,101174.69
2022-08-24T18:36:38.259Z,101179.78
2022-08-24T18:39:40.734Z,101178.31
2022-08-24T18:42:45.405Z,101179.13
2022-08-24T18:45:47.964Z,101180.19
2022-08-24T18:48:50.529Z,101180.09
2022-08-24T18:51:53.284Z,101184.47
2022-08-24T18:54:55.875Z,101173.66
2022-08-24T18:58:00.204Z,101186.44
2022-08-24T19:01:03.331Z,101188.81
2022-08-24T19:04:11.996Z,101191.75
2022-08-24T19:07:16.792Z,101192.13
2022-08-24T19:10:21.855Z,101186.91
2022-08-24T19:13:27.425Z,101184.91
2022-08-24T19:16:30.384Z,101174.31
2022-08-24T19:19:33.176Z,101175.69
2022-08-24T19:22:36.368Z,101180.91
2022-08-24T19:25:41.470Z,101190.03
2022-08-24T19:28:45.287Z,101186.00
2022-08-24T19:31:48.446Z,101180.63
2022-08-24T19:34:51.399Z,101182.66
2022-08-24T19:37:53.921Z,101173.38
2022-08-24T19:40:58.046Z,101170.59
2022-08-24T19:44:27.446Z,101162.63
2022-08-24T19:47:30.455Z,101167.44
2022-08-24T19:50:35.855Z,101165.47
2022-08-24T19:53:38.872Z,101169.91
2022-08-24T19:56:41.517Z,101173.34
2022-08-24T19:59:45.718Z,101175.34
2022-08-24T20:02:49.179Z,101179.69
2022-08-24T20:05:51.911Z,101171.03
2022-08-24T20:08:54.735Z,101181.69
2022-08-24T20:11:57.231Z,101183.41
2022-08-24T20:15:01.032Z,101187.88
2022-08-24T20:18:03.720Z,101186.94
2022-08-24T20:21:07.282Z,101188.66
2022-08-24T20:24:11.211Z,101191.00
2022-08-24T20:27:18.275Z,101190.09
2022-08-24T20:30:22.637Z,101190.00
2022-08-24T20:33:27.693Z,101184.63
2022-08-24T20:36:36.255Z,101182.81
2022-08-24T20:39:39.414Z,101188.03
2022-08-24T20:42:42.639Z,101196.69
2022-08-24T20:45:46.461Z,101191.34
2022-08-24T20:48:55.579Z,101194.34
2022-08-24T20:51:59.986Z,101194.81
2022-08-24T20:55:04.859Z,101190.78
2022-08-24T20:58:07.649Z,101196.13
2022-08-24T21:01:11.864Z,101188.31
2022-08-24T21:04:14.824Z,101188.41
2022-08-24T21:07:17.350Z,101192.94
2022-08-24T21:10:24.874Z,101186.50
2022-08-24T21:13:29.358Z,101184.19
2022-08-24T21:16:34.161Z,101179.50
2022-08-24T21:19:36.671Z,101186.56
2022-08-24T21:22:39.196Z,101183.91
2022-08-24T21:25:41.783Z,101187.81
2022-08-24T21:28:44.897Z,101186.28
2022-08-24T21:32:02.699Z,101189.69
2022-08-24T21:35:05.932Z,101195.91
2022-08-24T21:38:08.482Z,101191.84
2022-08-24T21:41:11.041Z,101194.19
2022-08-24T21:44:13.560Z,101195.72
2022-08-24T21:47:17.415Z,101184.03
2022-08-24T21:50:20.026Z,101187.00
2022-08-24T21:53:28.424Z,101188.28
2022-08-24T21:56:33.329Z,101198.97
2022-08-24T21:59:36.039Z,101198.97
2022-08-24T22:02:39.930Z,101199.56
2022-08-24T22:05:42.456Z,101195.91
2022-08-24T22:08:45.235Z,101201.53
2022-08-24T22:11:47.722Z,101201.72
2022-08-24T22:14:50.317Z,101194.97
2022-08-24T22:17:55.304Z,101195.94
2022-08-24T22:20:57.791Z,101190.81
2022-08-24T22:24:01.000Z,101188.28
2022-08-24T22:27:03.634Z,101180.19
2022-08-24T22:30:07.270Z,101175.47
2022-08-24T22:33:11.127Z,101169.75
2022-08-24T22:36:14.689Z,101172.22
2022-08-24T22:39:17.629Z,101171.47
2022-08-24T22:42:20.175Z,101172.84
2022-08-24T22:45:22.687Z,101175.41
2022-08-24T22:48:26.698Z,101175.59
2022-08-24T22:51:29.477Z,101176.00
2022-08-24T22:54:32.385Z,101177.63
2022-08-24T22:57:35.039Z,101169.81
2022-08-24T23:00:39.705Z,101177.53
2022-08-24T23:03:43.605Z,101167.78
2022-08-24T23:06:52.983Z,101174.13
2022-08-24T23:09:55.473Z,101179.47
2022-08-24T23:12:59.373Z,101181.69
2022-08-24T23:16:01.951Z,101176.34
2022-08-24T23:19:24.208Z,101178.50
2022-08-24T23:22:28.289Z,101167.72
2022-08-24T23:25:30.764Z,101165.06
2022-08-24T23:28:34.068Z,101166.88
2022-08-24T23:31:37.375Z,101166.53
2022-08-24T23:34:41.505Z,101167.59
2022-08-24T23:37:44.005Z,101173.47
2022-08-24T23:40:46.526Z,101160.63
2022-08-24T23:43:49.088Z,101159.78
2022-08-24T23:46:51.604Z,101155.66
2022-08-24T23:49:55.483Z,101156.16
2022-08-24T23:52:58.055Z,101147.41
2022-08-24T23:56:08.352Z,101148.78
2022-08-24T23:59:13.917Z,101151.22
